map of HAR home
HAR - Airport
Location
City:  Harrisburg, Pennsylvania, United States
Name:Capital City Airport
ICAO:KCXY
IATA:HAR
FAA LID:CXY

Details
Type:Airport (Airfield)
Use:Public/Civil
Latitude:4013'02"N (40.217139)
Longitude:7651'05"W (-76.851360)
Datum:WGS 1984
Elevation:346 ft (105 m)
Variation:11.13W (WMM2015v2 magnetic declination)
0.03 annual change
Runways:2
Longest:5000 × 150 ft (1524 × 45.5 m), paved

Time
Time Zone:UTC-5 (DST-4)
Local Time:

Weather
METAR:KCXY 041356Z 00000KT 2SM BR CLR 01/M01 A3012 RMK AO2 SLP204 T00061011

Related Locations
Nearby:
Farthest:YAUG: 11664 mi / 18771 km
Augusta [Augusta Airport], WA, AU

Find:

   beyond  
but within

Other Information
Maps:
NOTAMs:
Links:
Sources:

  
  • flag of United States
  • flag of Pennsylvania
  

Airport Diagram

Airport diagram for HAR

Airport diagram PDF from FAA

Sectional Chart

Flight Planning
at skyvector.com

Satellite Image

Google Maps Satellite view

 

Copyright © 2004-2019 Karl L. Swartz. All rights reserved.
The Great Circle Mapper name and logo are trademarks of the Great Circle Mapper.
All other trademarks mentioned herein belong to their respective owners.
Please see credits for attibutions and further copyright information.

  Follow gcmap on Facebook Follow gcmap on Twitter GCmap on LinkedIn

hCard Microformat

Geo Microformat